sensor_id;sensor_type;location;lat;lon;timestamp;P1;durP1;ratioP1;P2;durP2;ratioP2
8861;SDS011;4799;50.996;4.754;2023-05-14T00:01:35;42.87;;;38.87;;
8861;SDS011;4799;50.996;4.754;2023-05-14T00:04:01;42.70;;;38.77;;
8861;SDS011;4799;50.996;4.754;2023-05-14T00:06:27;43.57;;;39.27;;
8861;SDS011;4799;50.996;4.754;2023-05-14T00:08:53;44.60;;;40.17;;
8861;SDS011;4799;50.996;4.754;2023-05-14T00:11:19;44.00;;;39.77;;
8861;SDS011;4799;50.996;4.754;2023-05-14T00:13:45;43.13;;;39.00;;
8861;SDS011;4799;50.996;4.754;2023-05-14T00:16:11;43.97;;;39.47;;
8861;SDS011;4799;50.996;4.754;2023-05-14T00:18:37;42.90;;;38.73;;
8861;SDS011;4799;50.996;4.754;2023-05-14T00:21:03;44.47;;;40.13;;
8861;SDS011;4799;50.996;4.754;2023-05-14T00:23:28;45.33;;;41.10;;
8861;SDS011;4799;50.996;4.754;2023-05-14T00:25:54;44.90;;;40.40;;
8861;SDS011;4799;50.996;4.754;2023-05-14T00:28:20;45.20;;;40.97;;
8861;SDS011;4799;50.996;4.754;2023-05-14T00:30:46;45.00;;;40.70;;
8861;SDS011;4799;50.996;4.754;2023-05-14T00:33:12;42.43;;;38.37;;
8861;SDS011;4799;50.996;4.754;2023-05-14T00:35:37;45.93;;;41.83;;
8861;SDS011;4799;50.996;4.754;2023-05-14T00:38:03;45.07;;;40.70;;
8861;SDS011;4799;50.996;4.754;2023-05-14T00:40:29;47.10;;;42.57;;
8861;SDS011;4799;50.996;4.754;2023-05-14T00:42:55;44.10;;;40.07;;
8861;SDS011;4799;50.996;4.754;2023-05-14T00:45:21;46.10;;;42.00;;
8861;SDS011;4799;50.996;4.754;2023-05-14T00:47:47;48.33;;;43.37;;
8861;SDS011;4799;50.996;4.754;2023-05-14T00:50:13;44.73;;;40.63;;
8861;SDS011;4799;50.996;4.754;2023-05-14T00:52:40;49.83;;;45.13;;
8861;SDS011;4799;50.996;4.754;2023-05-14T00:55:06;49.77;;;44.90;;
8861;SDS011;4799;50.996;4.754;2023-05-14T00:57:33;46.97;;;42.40;;
8861;SDS011;4799;50.996;4.754;2023-05-14T01:00:00;49.87;;;44.87;;
8861;SDS011;4799;50.996;4.754;2023-05-14T01:02:27;52.13;;;47.27;;
8861;SDS011;4799;50.996;4.754;2023-05-14T01:04:53;51.77;;;46.77;;
8861;SDS011;4799;50.996;4.754;2023-05-14T01:07:21;51.93;;;47.17;;
8861;SDS011;4799;50.996;4.754;2023-05-14T01:10:05;49.63;;;45.00;;
8861;SDS011;4799;50.996;4.754;2023-05-14T01:15:32;50.03;;;45.20;;
8861;SDS011;4799;50.996;4.754;2023-05-14T01:18:04;53.30;;;48.40;;
8861;SDS011;4799;50.996;4.754;2023-05-14T01:20:31;48.77;;;44.27;;
8861;SDS011;4799;50.996;4.754;2023-05-14T01:22:57;51.70;;;46.70;;
8861;SDS011;4799;50.996;4.754;2023-05-14T01:25:23;55.40;;;49.77;;
8861;SDS011;4799;50.996;4.754;2023-05-14T01:33:11;54.03;;;48.80;;
8861;SDS011;4799;50.996;4.754;2023-05-14T01:35:40;52.40;;;47.40;;
8861;SDS011;4799;50.996;4.754;2023-05-14T01:38:06;57.97;;;52.23;;
8861;SDS011;4799;50.996;4.754;2023-05-14T01:40:35;56.33;;;50.43;;
8861;SDS011;4799;50.996;4.754;2023-05-14T01:43:02;57.13;;;51.20;;
8861;SDS011;4799;50.996;4.754;2023-05-14T01:45:29;61.57;;;55.30;;
8861;SDS011;4799;50.996;4.754;2023-05-14T01:47:55;61.57;;;55.37;;
8861;SDS011;4799;50.996;4.754;2023-05-14T01:50:21;62.03;;;55.77;;
8861;SDS011;4799;50.996;4.754;2023-05-14T01:52:47;62.37;;;56.17;;
8861;SDS011;4799;50.996;4.754;2023-05-14T01:55:13;61.53;;;55.17;;
8861;SDS011;4799;50.996;4.754;2023-05-14T01:57:40;57.80;;;52.10;;
8861;SDS011;4799;50.996;4.754;2023-05-14T02:00:06;59.03;;;53.20;;
8861;SDS011;4799;50.996;4.754;2023-05-14T02:02:32;63.57;;;57.00;;
8861;SDS011;4799;50.996;4.754;2023-05-14T02:04:57;63.97;;;57.60;;
8861;SDS011;4799;50.996;4.754;2023-05-14T02:07:23;69.27;;;62.03;;
8861;SDS011;4799;50.996;4.754;2023-05-14T02:09:49;63.90;;;57.27;;
8861;SDS011;4799;50.996;4.754;2023-05-14T02:12:15;56.70;;;51.27;;
8861;SDS011;4799;50.996;4.754;2023-05-14T02:14:41;62.23;;;55.90;;
8861;SDS011;4799;50.996;4.754;2023-05-14T02:17:06;69.83;;;62.70;;
8861;SDS011;4799;50.996;4.754;2023-05-14T02:19:32;67.10;;;60.07;;
8861;SDS011;4799;50.996;4.754;2023-05-14T02:21:58;68.73;;;61.43;;
8861;SDS011;4799;50.996;4.754;2023-05-14T02:24:25;69.57;;;62.27;;
8861;SDS011;4799;50.996;4.754;2023-05-14T02:26:51;72.40;;;64.57;;
8861;SDS011;4799;50.996;4.754;2023-05-14T02:29:17;81.10;;;72.13;;
8861;SDS011;4799;50.996;4.754;2023-05-14T02:31:42;87.43;;;75.03;;
8861;SDS011;4799;50.996;4.754;2023-05-14T02:34:08;82.43;;;72.67;;
8861;SDS011;4799;50.996;4.754;2023-05-14T02:36:34;86.93;;;74.57;;
8861;SDS011;4799;50.996;4.754;2023-05-14T02:39:00;95.03;;;78.33;;
8861;SDS011;4799;50.996;4.754;2023-05-14T02:41:26;79.50;;;70.47;;
8861;SDS011;4799;50.996;4.754;2023-05-14T02:43:52;87.53;;;73.93;;
8861;SDS011;4799;50.996;4.754;2023-05-14T02:46:18;90.53;;;74.70;;
8861;SDS011;4799;50.996;4.754;2023-05-14T02:48:44;86.00;;;74.67;;
8861;SDS011;4799;50.996;4.754;2023-05-14T02:51:10;95.60;;;78.47;;
8861;SDS011;4799;50.996;4.754;2023-05-14T02:53:36;90.63;;;76.97;;
8861;SDS011;4799;50.996;4.754;2023-05-14T02:56:01;94.27;;;76.53;;
8861;SDS011;4799;50.996;4.754;2023-05-14T02:58:27;85.57;;;72.47;;
8861;SDS011;4799;50.996;4.754;2023-05-14T03:00:53;87.60;;;74.27;;
8861;SDS011;4799;50.996;4.754;2023-05-14T03:03:19;84.93;;;71.67;;
8861;SDS011;4799;50.996;4.754;2023-05-14T03:05:45;87.43;;;74.10;;
8861;SDS011;4799;50.996;4.754;2023-05-14T03:08:10;94.10;;;79.23;;
8861;SDS011;4799;50.996;4.754;2023-05-14T03:10:36;88.67;;;74.87;;
8861;SDS011;4799;50.996;4.754;2023-05-14T03:13:02;98.70;;;77.70;;
8861;SDS011;4799;50.996;4.754;2023-05-14T03:15:28;100.00;;;81.53;;
8861;SDS011;4799;50.996;4.754;2023-05-14T03:17:53;110.97;;;86.93;;
8861;SDS011;4799;50.996;4.754;2023-05-14T03:20:19;107.00;;;82.73;;
8861;SDS011;4799;50.996;4.754;2023-05-14T03:22:45;98.20;;;77.60;;
8861;SDS011;4799;50.996;4.754;2023-05-14T03:25:11;97.90;;;78.87;;
8861;SDS011;4799;50.996;4.754;2023-05-14T03:27:37;97.10;;;79.33;;
8861;SDS011;4799;50.996;4.754;2023-05-14T03:30:03;107.63;;;84.93;;
8861;SDS011;4799;50.996;4.754;2023-05-14T03:32:29;91.47;;;78.37;;
8861;SDS011;4799;50.996;4.754;2023-05-14T03:34:55;92.30;;;74.70;;
8861;SDS011;4799;50.996;4.754;2023-05-14T03:37:20;92.17;;;79.37;;
8861;SDS011;4799;50.996;4.754;2023-05-14T03:39:46;89.57;;;74.63;;
8861;SDS011;4799;50.996;4.754;2023-05-14T03:42:12;86.87;;;72.10;;
8861;SDS011;4799;50.996;4.754;2023-05-14T03:44:37;86.90;;;73.20;;
8861;SDS011;4799;50.996;4.754;2023-05-14T03:47:03;86.93;;;77.10;;
8861;SDS011;4799;50.996;4.754;2023-05-14T03:49:29;87.30;;;75.47;;
8861;SDS011;4799;50.996;4.754;2023-05-14T03:51:55;96.47;;;77.30;;
8861;SDS011;4799;50.996;4.754;2023-05-14T03:54:23;92.83;;;78.30;;
8861;SDS011;4799;50.996;4.754;2023-05-14T03:56:49;77.57;;;67.77;;
8861;SDS011;4799;50.996;4.754;2023-05-14T03:59:15;89.77;;;74.57;;
8861;SDS011;4799;50.996;4.754;2023-05-14T04:01:40;83.00;;;69.17;;
8861;SDS011;4799;50.996;4.754;2023-05-14T04:04:07;87.63;;;70.97;;
8861;SDS011;4799;50.996;4.754;2023-05-14T04:06:33;89.17;;;70.97;;
8861;SDS011;4799;50.996;4.754;2023-05-14T04:08:58;96.70;;;76.13;;
8861;SDS011;4799;50.996;4.754;2023-05-14T04:11:24;91.33;;;74.63;;
8861;SDS011;4799;50.996;4.754;2023-05-14T04:13:50;84.53;;;69.53;;
8861;SDS011;4799;50.996;4.754;2023-05-14T04:16:15;89.13;;;75.20;;
8861;SDS011;4799;50.996;4.754;2023-05-14T04:18:41;88.07;;;69.70;;
8861;SDS011;4799;50.996;4.754;2023-05-14T04:21:07;95.93;;;74.60;;
8861;SDS011;4799;50.996;4.754;2023-05-14T04:23:33;95.40;;;73.03;;
8861;SDS011;4799;50.996;4.754;2023-05-14T04:25:58;93.80;;;74.83;;
8861;SDS011;4799;50.996;4.754;2023-05-14T04:28:24;90.93;;;73.80;;
8861;SDS011;4799;50.996;4.754;2023-05-14T04:30:50;89.87;;;74.07;;
8861;SDS011;4799;50.996;4.754;2023-05-14T04:33:16;98.03;;;75.73;;
8861;SDS011;4799;50.996;4.754;2023-05-14T04:35:43;88.80;;;72.73;;
8861;SDS011;4799;50.996;4.754;2023-05-14T04:38:09;85.43;;;70.57;;
8861;SDS011;4799;50.996;4.754;2023-05-14T04:40:35;83.67;;;70.17;;
8861;SDS011;4799;50.996;4.754;2023-05-14T04:43:01;94.07;;;72.80;;
8861;SDS011;4799;50.996;4.754;2023-05-14T04:45:27;82.47;;;68.27;;
8861;SDS011;4799;50.996;4.754;2023-05-14T04:47:53;90.00;;;71.70;;
8861;SDS011;4799;50.996;4.754;2023-05-14T04:50:18;82.23;;;69.97;;
8861;SDS011;4799;50.996;4.754;2023-05-14T04:52:44;93.17;;;71.17;;
8861;SDS011;4799;50.996;4.754;2023-05-14T04:55:10;87.93;;;70.43;;
8861;SDS011;4799;50.996;4.754;2023-05-14T04:57:36;91.97;;;69.83;;
8861;SDS011;4799;50.996;4.754;2023-05-14T05:00:01;83.40;;;66.97;;
8861;SDS011;4799;50.996;4.754;2023-05-14T05:02:29;81.33;;;67.47;;
8861;SDS011;4799;50.996;4.754;2023-05-14T05:04:55;75.27;;;64.73;;
8861;SDS011;4799;50.996;4.754;2023-05-14T05:07:21;77.03;;;64.07;;
8861;SDS011;4799;50.996;4.754;2023-05-14T05:09:47;76.73;;;64.50;;
8861;SDS011;4799;50.996;4.754;2023-05-14T05:12:12;76.00;;;63.90;;
8861;SDS011;4799;50.996;4.754;2023-05-14T05:14:38;72.63;;;60.53;;
8861;SDS011;4799;50.996;4.754;2023-05-14T05:17:04;70.37;;;60.27;;
8861;SDS011;4799;50.996;4.754;2023-05-14T05:19:30;72.70;;;61.57;;
8861;SDS011;4799;50.996;4.754;2023-05-14T05:21:55;72.70;;;61.43;;
8861;SDS011;4799;50.996;4.754;2023-05-14T05:24:21;71.83;;;59.50;;
8861;SDS011;4799;50.996;4.754;2023-05-14T05:26:47;65.60;;;57.23;;
8861;SDS011;4799;50.996;4.754;2023-05-14T05:29:14;66.30;;;58.07;;
8861;SDS011;4799;50.996;4.754;2023-05-14T05:31:40;76.37;;;62.20;;
8861;SDS011;4799;50.996;4.754;2023-05-14T05:34:06;71.60;;;58.47;;
8861;SDS011;4799;50.996;4.754;2023-05-14T05:36:32;65.73;;;57.30;;
8861;SDS011;4799;50.996;4.754;2023-05-14T05:38:57;67.37;;;57.57;;
8861;SDS011;4799;50.996;4.754;2023-05-14T05:41:23;65.87;;;56.10;;
8861;SDS011;4799;50.996;4.754;2023-05-14T05:43:50;69.77;;;57.70;;
8861;SDS011;4799;50.996;4.754;2023-05-14T05:46:16;66.60;;;56.30;;
8861;SDS011;4799;50.996;4.754;2023-05-14T05:48:43;69.83;;;56.27;;
8861;SDS011;4799;50.996;4.754;2023-05-14T05:51:08;67.43;;;55.10;;
8861;SDS011;4799;50.996;4.754;2023-05-14T05:53:35;60.20;;;53.60;;
8861;SDS011;4799;50.996;4.754;2023-05-14T05:56:00;62.67;;;54.40;;
8861;SDS011;4799;50.996;4.754;2023-05-14T05:58:26;63.17;;;53.60;;
8861;SDS011;4799;50.996;4.754;2023-05-14T06:00:52;63.47;;;54.23;;
8861;SDS011;4799;50.996;4.754;2023-05-14T06:03:19;60.27;;;52.50;;
8861;SDS011;4799;50.996;4.754;2023-05-14T06:05:46;62.10;;;54.37;;
8861;SDS011;4799;50.996;4.754;2023-05-14T06:08:11;59.77;;;50.90;;
8861;SDS011;4799;50.996;4.754;2023-05-14T06:10:37;55.50;;;49.30;;
8861;SDS011;4799;50.996;4.754;2023-05-14T06:13:03;59.27;;;52.83;;
8861;SDS011;4799;50.996;4.754;2023-05-14T06:15:29;58.37;;;51.30;;
8861;SDS011;4799;50.996;4.754;2023-05-14T06:17:54;57.13;;;50.00;;
8861;SDS011;4799;50.996;4.754;2023-05-14T06:20:20;58.27;;;49.50;;
8861;SDS011;4799;50.996;4.754;2023-05-14T06:22:46;60.63;;;50.20;;
8861;SDS011;4799;50.996;4.754;2023-05-14T06:25:12;56.20;;;50.03;;
8861;SDS011;4799;50.996;4.754;2023-05-14T06:27:37;57.83;;;50.87;;
8861;SDS011;4799;50.996;4.754;2023-05-14T06:30:03;55.37;;;48.57;;
8861;SDS011;4799;50.996;4.754;2023-05-14T06:32:30;56.27;;;48.07;;
8861;SDS011;4799;50.996;4.754;2023-05-14T06:34:56;54.77;;;47.37;;
8861;SDS011;4799;50.996;4.754;2023-05-14T06:37:22;52.73;;;47.03;;
8861;SDS011;4799;50.996;4.754;2023-05-14T06:39:48;51.27;;;45.03;;
8861;SDS011;4799;50.996;4.754;2023-05-14T06:42:14;53.20;;;46.23;;
8861;SDS011;4799;50.996;4.754;2023-05-14T06:44:41;54.27;;;47.87;;
8861;SDS011;4799;50.996;4.754;2023-05-14T06:47:06;53.50;;;47.53;;
8861;SDS011;4799;50.996;4.754;2023-05-14T06:49:33;53.53;;;45.40;;
8861;SDS011;4799;50.996;4.754;2023-05-14T06:51:59;51.93;;;45.87;;
8861;SDS011;4799;50.996;4.754;2023-05-14T06:54:25;51.73;;;46.13;;
8861;SDS011;4799;50.996;4.754;2023-05-14T06:56:51;51.77;;;46.17;;
8861;SDS011;4799;50.996;4.754;2023-05-14T06:59:16;51.80;;;46.20;;
8861;SDS011;4799;50.996;4.754;2023-05-14T07:01:42;50.27;;;44.60;;
8861;SDS011;4799;50.996;4.754;2023-05-14T07:04:08;51.33;;;45.77;;
8861;SDS011;4799;50.996;4.754;2023-05-14T07:06:33;50.97;;;45.00;;
8861;SDS011;4799;50.996;4.754;2023-05-14T07:08:59;52.77;;;42.97;;
8861;SDS011;4799;50.996;4.754;2023-05-14T07:11:25;52.10;;;45.07;;
8861;SDS011;4799;50.996;4.754;2023-05-14T07:13:51;48.93;;;43.23;;
8861;SDS011;4799;50.996;4.754;2023-05-14T07:16:17;57.33;;;44.00;;
8861;SDS011;4799;50.996;4.754;2023-05-14T07:18:43;47.77;;;41.90;;
8861;SDS011;4799;50.996;4.754;2023-05-14T07:21:09;51.03;;;44.43;;
8861;SDS011;4799;50.996;4.754;2023-05-14T07:23:35;48.37;;;42.77;;
8861;SDS011;4799;50.996;4.754;2023-05-14T07:26:03;48.57;;;42.03;;
8861;SDS011;4799;50.996;4.754;2023-05-14T07:28:30;48.90;;;43.23;;
8861;SDS011;4799;50.996;4.754;2023-05-14T07:30:55;50.67;;;45.17;;
8861;SDS011;4799;50.996;4.754;2023-05-14T07:33:21;49.80;;;43.43;;
8861;SDS011;4799;50.996;4.754;2023-05-14T07:35:48;52.50;;;44.67;;
8861;SDS011;4799;50.996;4.754;2023-05-14T07:38:14;51.40;;;45.93;;
8861;SDS011;4799;50.996;4.754;2023-05-14T07:40:41;49.93;;;44.63;;
8861;SDS011;4799;50.996;4.754;2023-05-14T07:43:07;51.57;;;46.10;;
8861;SDS011;4799;50.996;4.754;2023-05-14T07:45:35;51.23;;;44.63;;
8861;SDS011;4799;50.996;4.754;2023-05-14T07:48:01;46.97;;;41.97;;
8861;SDS011;4799;50.996;4.754;2023-05-14T07:50:27;46.30;;;41.53;;
8861;SDS011;4799;50.996;4.754;2023-05-14T07:52:53;47.87;;;42.77;;
8861;SDS011;4799;50.996;4.754;2023-05-14T07:55:18;46.67;;;41.77;;
8861;SDS011;4799;50.996;4.754;2023-05-14T07:57:45;44.67;;;40.17;;
8861;SDS011;4799;50.996;4.754;2023-05-14T08:00:11;46.97;;;41.87;;
8861;SDS011;4799;50.996;4.754;2023-05-14T08:02:37;45.13;;;40.30;;
8861;SDS011;4799;50.996;4.754;2023-05-14T08:05:03;45.17;;;40.57;;
8861;SDS011;4799;50.996;4.754;2023-05-14T08:07:29;44.17;;;39.63;;
8861;SDS011;4799;50.996;4.754;2023-05-14T08:09:54;44.27;;;39.77;;
8861;SDS011;4799;50.996;4.754;2023-05-14T08:12:20;42.77;;;38.53;;
8861;SDS011;4799;50.996;4.754;2023-05-14T08:14:46;42.17;;;37.93;;
8861;SDS011;4799;50.996;4.754;2023-05-14T08:17:12;40.47;;;36.37;;
8861;SDS011;4799;50.996;4.754;2023-05-14T08:19:38;43.70;;;39.33;;
8861;SDS011;4799;50.996;4.754;2023-05-14T08:22:04;42.20;;;37.83;;
8861;SDS011;4799;50.996;4.754;2023-05-14T08:24:30;42.80;;;38.43;;
8861;SDS011;4799;50.996;4.754;2023-05-14T08:26:56;40.93;;;36.97;;
8861;SDS011;4799;50.996;4.754;2023-05-14T08:29:21;41.10;;;37.17;;
8861;SDS011;4799;50.996;4.754;2023-05-14T08:31:50;40.30;;;36.40;;
8861;SDS011;4799;50.996;4.754;2023-05-14T08:34:16;37.70;;;34.10;;
8861;SDS011;4799;50.996;4.754;2023-05-14T08:36:42;37.40;;;33.57;;
8861;SDS011;4799;50.996;4.754;2023-05-14T08:39:07;36.47;;;32.93;;
8861;SDS011;4799;50.996;4.754;2023-05-14T08:41:33;33.77;;;30.40;;
8861;SDS011;4799;50.996;4.754;2023-05-14T08:44:13;32.53;;;29.53;;
8861;SDS011;4799;50.996;4.754;2023-05-14T08:46:49;28.60;;;25.80;;
8861;SDS011;4799;50.996;4.754;2023-05-14T08:49:23;28.43;;;25.60;;
8861;SDS011;4799;50.996;4.754;2023-05-14T08:52:02;28.37;;;25.77;;
8861;SDS011;4799;50.996;4.754;2023-05-14T08:54:28;27.50;;;24.90;;
8861;SDS011;4799;50.996;4.754;2023-05-14T08:56:56;27.43;;;24.83;;
8861;SDS011;4799;50.996;4.754;2023-05-14T08:59:23;27.53;;;24.90;;
8861;SDS011;4799;50.996;4.754;2023-05-14T09:01:50;27.80;;;25.20;;
8861;SDS011;4799;50.996;4.754;2023-05-14T09:04:21;26.67;;;24.27;;
8861;SDS011;4799;50.996;4.754;2023-05-14T09:06:49;26.83;;;24.23;;
8861;SDS011;4799;50.996;4.754;2023-05-14T09:09:16;25.83;;;23.43;;
8861;SDS011;4799;50.996;4.754;2023-05-14T09:11:46;27.00;;;24.60;;
8861;SDS011;4799;50.996;4.754;2023-05-14T09:14:12;26.50;;;24.10;;
8861;SDS011;4799;50.996;4.754;2023-05-14T09:16:38;26.27;;;23.77;;
8861;SDS011;4799;50.996;4.754;2023-05-14T09:19:06;25.73;;;23.43;;
8861;SDS011;4799;50.996;4.754;2023-05-14T09:21:33;26.60;;;24.10;;
8861;SDS011;4799;50.996;4.754;2023-05-14T09:23:59;26.33;;;23.90;;
8861;SDS011;4799;50.996;4.754;2023-05-14T09:26:25;26.20;;;23.83;;
8861;SDS011;4799;50.996;4.754;2023-05-14T09:28:56;24.90;;;22.57;;
8861;SDS011;4799;50.996;4.754;2023-05-14T09:31:26;25.70;;;23.40;;
8861;SDS011;4799;50.996;4.754;2023-05-14T09:33:54;25.17;;;22.77;;
8861;SDS011;4799;50.996;4.754;2023-05-14T09:36:20;28.23;;;25.53;;
8861;SDS011;4799;50.996;4.754;2023-05-14T09:38:46;25.93;;;23.53;;
8861;SDS011;4799;50.996;4.754;2023-05-14T09:41:12;25.23;;;22.93;;
8861;SDS011;4799;50.996;4.754;2023-05-14T09:43:37;25.03;;;22.73;;
8861;SDS011;4799;50.996;4.754;2023-05-14T09:46:03;25.23;;;22.60;;
8861;SDS011;4799;50.996;4.754;2023-05-14T09:48:29;21.97;;;19.73;;
8861;SDS011;4799;50.996;4.754;2023-05-14T09:50:55;23.00;;;20.80;;
8861;SDS011;4799;50.996;4.754;2023-05-14T09:53:20;23.60;;;21.17;;
8861;SDS011;4799;50.996;4.754;2023-05-14T09:55:46;23.40;;;21.40;;
8861;SDS011;4799;50.996;4.754;2023-05-14T09:58:13;24.63;;;22.33;;
8861;SDS011;4799;50.996;4.754;2023-05-14T10:00:39;24.23;;;22.03;;
8861;SDS011;4799;50.996;4.754;2023-05-14T10:03:09;24.67;;;22.40;;
8861;SDS011;4799;50.996;4.754;2023-05-14T10:05:41;25.87;;;23.67;;
8861;SDS011;4799;50.996;4.754;2023-05-14T10:08:08;27.37;;;24.80;;
8861;SDS011;4799;50.996;4.754;2023-05-14T10:10:38;27.03;;;24.53;;
8861;SDS011;4799;50.996;4.754;2023-05-14T10:13:11;25.60;;;23.13;;
8861;SDS011;4799;50.996;4.754;2023-05-14T10:15:39;25.47;;;23.27;;
8861;SDS011;4799;50.996;4.754;2023-05-14T10:18:12;26.03;;;23.73;;
8861;SDS011;4799;50.996;4.754;2023-05-14T10:20:45;28.47;;;25.80;;
8861;SDS011;4799;50.996;4.754;2023-05-14T10:23:17;24.43;;;22.23;;
8861;SDS011;4799;50.996;4.754;2023-05-14T10:25:43;23.43;;;21.40;;
8861;SDS011;4799;50.996;4.754;2023-05-14T10:28:10;23.87;;;21.57;;
8861;SDS011;4799;50.996;4.754;2023-05-14T10:30:40;24.00;;;22.00;;
8861;SDS011;4799;50.996;4.754;2023-05-14T10:33:13;29.17;;;26.30;;
8861;SDS011;4799;50.996;4.754;2023-05-14T10:38:29;29.40;;;26.80;;
8861;SDS011;4799;50.996;4.754;2023-05-14T10:41:03;29.47;;;26.83;;
8861;SDS011;4799;50.996;4.754;2023-05-14T10:43:37;27.93;;;25.43;;
8861;SDS011;4799;50.996;4.754;2023-05-14T10:46:04;26.20;;;23.97;;
8861;SDS011;4799;50.996;4.754;2023-05-14T10:48:31;25.90;;;23.67;;
8861;SDS011;4799;50.996;4.754;2023-05-14T10:50:58;25.70;;;23.50;;
8861;SDS011;4799;50.996;4.754;2023-05-14T10:53:32;25.87;;;23.40;;
8861;SDS011;4799;50.996;4.754;2023-05-14T10:56:01;24.93;;;22.83;;
8861;SDS011;4799;50.996;4.754;2023-05-14T10:58:29;24.70;;;22.50;;
8861;SDS011;4799;50.996;4.754;2023-05-14T11:00:59;25.93;;;23.63;;
8861;SDS011;4799;50.996;4.754;2023-05-14T11:03:29;24.27;;;22.33;;
8861;SDS011;4799;50.996;4.754;2023-05-14T11:05:58;25.07;;;22.80;;
8861;SDS011;4799;50.996;4.754;2023-05-14T11:08:27;24.57;;;22.57;;
8861;SDS011;4799;50.996;4.754;2023-05-14T11:10:55;25.30;;;23.20;;
8861;SDS011;4799;50.996;4.754;2023-05-14T11:13:21;24.23;;;22.00;;
8861;SDS011;4799;50.996;4.754;2023-05-14T11:15:47;23.43;;;21.30;;
8861;SDS011;4799;50.996;4.754;2023-05-14T11:18:24;23.93;;;21.83;;
8861;SDS011;4799;50.996;4.754;2023-05-14T11:20:52;23.70;;;21.63;;
8861;SDS011;4799;50.996;4.754;2023-05-14T11:23:21;24.47;;;22.03;;
8861;SDS011;4799;50.996;4.754;2023-05-14T11:25:49;24.63;;;22.57;;
8861;SDS011;4799;50.996;4.754;2023-05-14T11:28:16;23.07;;;20.97;;
8861;SDS011;4799;50.996;4.754;2023-05-14T11:30:43;20.33;;;18.63;;
8861;SDS011;4799;50.996;4.754;2023-05-14T11:33:10;24.10;;;22.10;;
8861;SDS011;4799;50.996;4.754;2023-05-14T11:35:36;26.57;;;24.37;;
8861;SDS011;4799;50.996;4.754;2023-05-14T11:38:03;25.67;;;23.27;;
8861;SDS011;4799;50.996;4.754;2023-05-14T11:40:29;23.10;;;21.20;;
8861;SDS011;4799;50.996;4.754;2023-05-14T11:42:54;23.33;;;21.27;;
8861;SDS011;4799;50.996;4.754;2023-05-14T11:45:24;22.07;;;20.27;;
8861;SDS011;4799;50.996;4.754;2023-05-14T11:47:51;23.50;;;21.60;;
8861;SDS011;4799;50.996;4.754;2023-05-14T11:50:19;22.80;;;20.80;;
8861;SDS011;4799;50.996;4.754;2023-05-14T11:52:48;22.67;;;20.87;;
8861;SDS011;4799;50.996;4.754;2023-05-14T11:55:15;21.97;;;19.87;;
8861;SDS011;4799;50.996;4.754;2023-05-14T11:57:41;22.67;;;20.77;;
8861;SDS011;4799;50.996;4.754;2023-05-14T12:00:08;21.60;;;19.70;;
8861;SDS011;4799;50.996;4.754;2023-05-14T12:02:38;20.57;;;18.90;;
8861;SDS011;4799;50.996;4.754;2023-05-14T12:05:04;24.97;;;22.73;;
8861;SDS011;4799;50.996;4.754;2023-05-14T12:07:35;26.17;;;23.67;;
8861;SDS011;4799;50.996;4.754;2023-05-14T12:10:02;24.50;;;22.40;;
8861;SDS011;4799;50.996;4.754;2023-05-14T12:12:32;23.17;;;21.03;;
8861;SDS011;4799;50.996;4.754;2023-05-14T12:15:00;22.47;;;20.57;;
8861;SDS011;4799;50.996;4.754;2023-05-14T12:17:25;23.00;;;21.10;;
8861;SDS011;4799;50.996;4.754;2023-05-14T12:19:51;23.00;;;21.10;;
8861;SDS011;4799;50.996;4.754;2023-05-14T12:22:18;22.53;;;20.73;;
8861;SDS011;4799;50.996;4.754;2023-05-14T12:25:09;22.73;;;20.83;;
8861;SDS011;4799;50.996;4.754;2023-05-14T12:27:36;21.90;;;20.10;;
8861;SDS011;4799;50.996;4.754;2023-05-14T12:30:02;23.90;;;21.80;;
8861;SDS011;4799;50.996;4.754;2023-05-14T12:32:33;24.90;;;22.73;;
8861;SDS011;4799;50.996;4.754;2023-05-14T12:34:59;24.17;;;21.90;;
8861;SDS011;4799;50.996;4.754;2023-05-14T12:37:25;26.13;;;23.70;;
8861;SDS011;4799;50.996;4.754;2023-05-14T12:39:51;25.13;;;23.00;;
8861;SDS011;4799;50.996;4.754;2023-05-14T12:42:17;26.57;;;24.27;;
8861;SDS011;4799;50.996;4.754;2023-05-14T12:44:42;26.90;;;24.60;;
8861;SDS011;4799;50.996;4.754;2023-05-14T12:47:08;23.33;;;21.23;;
8861;SDS011;4799;50.996;4.754;2023-05-14T12:49:34;26.93;;;24.63;;
8861;SDS011;4799;50.996;4.754;2023-05-14T12:52:02;25.20;;;23.10;;
8861;SDS011;4799;50.996;4.754;2023-05-14T12:54:28;25.63;;;23.43;;
8861;SDS011;4799;50.996;4.754;2023-05-14T12:56:55;24.63;;;22.63;;
8861;SDS011;4799;50.996;4.754;2023-05-14T12:59:22;26.03;;;23.77;;
8861;SDS011;4799;50.996;4.754;2023-05-14T13:01:47;25.27;;;23.07;;
8861;SDS011;4799;50.996;4.754;2023-05-14T13:04:13;23.20;;;21.23;;
8861;SDS011;4799;50.996;4.754;2023-05-14T13:06:39;20.53;;;18.73;;
8861;SDS011;4799;50.996;4.754;2023-05-14T13:09:05;19.93;;;18.23;;
8861;SDS011;4799;50.996;4.754;2023-05-14T13:11:32;21.70;;;19.97;;
8861;SDS011;4799;50.996;4.754;2023-05-14T13:13:58;18.17;;;16.63;;
8861;SDS011;4799;50.996;4.754;2023-05-14T13:16:25;20.00;;;18.27;;
8861;SDS011;4799;50.996;4.754;2023-05-14T13:18:52;21.13;;;19.30;;
8861;SDS011;4799;50.996;4.754;2023-05-14T13:21:18;20.27;;;18.50;;
8861;SDS011;4799;50.996;4.754;2023-05-14T13:23:43;22.10;;;20.20;;
8861;SDS011;4799;50.996;4.754;2023-05-14T13:26:09;20.27;;;18.63;;
8861;SDS011;4799;50.996;4.754;2023-05-14T13:28:35;19.70;;;18.00;;
8861;SDS011;4799;50.996;4.754;2023-05-14T13:31:05;18.50;;;16.73;;
8861;SDS011;4799;50.996;4.754;2023-05-14T13:33:35;20.63;;;18.70;;
8861;SDS011;4799;50.996;4.754;2023-05-14T13:36:02;20.27;;;18.47;;
8861;SDS011;4799;50.996;4.754;2023-05-14T13:38:29;20.10;;;18.57;;
8861;SDS011;4799;50.996;4.754;2023-05-14T13:40:54;19.23;;;17.63;;
8861;SDS011;4799;50.996;4.754;2023-05-14T13:43:33;19.83;;;18.03;;
8861;SDS011;4799;50.996;4.754;2023-05-14T13:45:59;18.47;;;16.63;;
8861;SDS011;4799;50.996;4.754;2023-05-14T13:48:26;17.03;;;15.63;;
8861;SDS011;4799;50.996;4.754;2023-05-14T13:50:52;15.73;;;14.37;;
8861;SDS011;4799;50.996;4.754;2023-05-14T13:53:19;17.23;;;15.53;;
8861;SDS011;4799;50.996;4.754;2023-05-14T13:55:46;16.73;;;15.23;;
8861;SDS011;4799;50.996;4.754;2023-05-14T13:58:12;17.50;;;16.10;;
8861;SDS011;4799;50.996;4.754;2023-05-14T14:00:38;16.03;;;14.63;;
8861;SDS011;4799;50.996;4.754;2023-05-14T14:03:04;14.83;;;13.57;;
8861;SDS011;4799;50.996;4.754;2023-05-14T14:05:29;15.40;;;13.90;;
8861;SDS011;4799;50.996;4.754;2023-05-14T14:07:56;16.77;;;15.27;;
8861;SDS011;4799;50.996;4.754;2023-05-14T14:10:21;14.60;;;13.50;;
8861;SDS011;4799;50.996;4.754;2023-05-14T14:12:48;16.07;;;14.67;;
8861;SDS011;4799;50.996;4.754;2023-05-14T14:15:14;15.80;;;14.50;;
8861;SDS011;4799;50.996;4.754;2023-05-14T14:17:39;16.43;;;15.03;;
8861;SDS011;4799;50.996;4.754;2023-05-14T14:20:08;14.83;;;13.53;;
8861;SDS011;4799;50.996;4.754;2023-05-14T14:22:35;15.57;;;14.20;;
8861;SDS011;4799;50.996;4.754;2023-05-14T14:25:01;14.87;;;13.57;;
8861;SDS011;4799;50.996;4.754;2023-05-14T14:27:28;15.53;;;14.10;;
8861;SDS011;4799;50.996;4.754;2023-05-14T14:29:56;14.43;;;13.27;;
8861;SDS011;4799;50.996;4.754;2023-05-14T14:32:21;13.73;;;12.33;;
8861;SDS011;4799;50.996;4.754;2023-05-14T14:34:47;12.20;;;11.10;;
8861;SDS011;4799;50.996;4.754;2023-05-14T14:37:13;13.43;;;11.97;;
8861;SDS011;4799;50.996;4.754;2023-05-14T14:39:39;14.07;;;12.63;;
8861;SDS011;4799;50.996;4.754;2023-05-14T14:42:05;13.93;;;12.63;;
8861;SDS011;4799;50.996;4.754;2023-05-14T14:44:31;14.13;;;12.83;;
8861;SDS011;4799;50.996;4.754;2023-05-14T14:46:57;14.30;;;12.93;;
8861;SDS011;4799;50.996;4.754;2023-05-14T14:49:22;16.60;;;15.17;;
8861;SDS011;4799;50.996;4.754;2023-05-14T14:51:48;15.93;;;13.70;;
8861;SDS011;4799;50.996;4.754;2023-05-14T14:54:14;15.07;;;13.57;;
8861;SDS011;4799;50.996;4.754;2023-05-14T14:56:40;14.20;;;12.90;;